sensor_id;sensor_type;location;lat;lon;timestamp;P1;durP1;ratioP1;P2;durP2;ratioP2
58842;SDS011;44614;54.356;10.100;2023-03-13T00:01:33;28.70;;;5.85;;
58842;SDS011;44614;54.356;10.100;2023-03-13T00:04:01;27.35;;;4.75;;
58842;SDS011;44614;54.356;10.100;2023-03-13T00:06:28;24.88;;;4.50;;
58842;SDS011;44614;54.356;10.100;2023-03-13T00:08:56;17.95;;;4.85;;
58842;SDS011;44614;54.356;10.100;2023-03-13T00:11:21;17.67;;;4.72;;
58842;SDS011;44614;54.356;10.100;2023-03-13T00:13:47;20.77;;;4.60;;
58842;SDS011;44614;54.356;10.100;2023-03-13T00:16:13;20.57;;;3.73;;
58842;SDS011;44614;54.356;10.100;2023-03-13T00:18:47;23.42;;;4.35;;
58842;SDS011;44614;54.356;10.100;2023-03-13T00:21:14;17.35;;;3.88;;
58842;SDS011;44614;54.356;10.100;2023-03-13T00:23:41;22.67;;;4.35;;
58842;SDS011;44614;54.356;10.100;2023-03-13T00:26:07;19.00;;;4.43;;
58842;SDS011;44614;54.356;10.100;2023-03-13T00:28:35;20.50;;;4.90;;
58842;SDS011;44614;54.356;10.100;2023-03-13T00:31:05;14.00;;;4.03;;
58842;SDS011;44614;54.356;10.100;2023-03-13T00:33:43;16.02;;;4.03;;
58842;SDS011;44614;54.356;10.100;2023-03-13T00:36:11;19.83;;;4.20;;
58842;SDS011;44614;54.356;10.100;2023-03-13T00:38:41;18.85;;;4.38;;
58842;SDS011;44614;54.356;10.100;2023-03-13T00:41:07;18.73;;;4.93;;
58842;SDS011;44614;54.356;10.100;2023-03-13T00:43:43;9.60;;;4.15;;
58842;SDS011;44614;54.356;10.100;2023-03-13T00:46:10;17.40;;;3.95;;
58842;SDS011;44614;54.356;10.100;2023-03-13T00:51:02;16.23;;;4.77;;
58842;SDS011;44614;54.356;10.100;2023-03-13T00:53:29;14.70;;;3.55;;
58842;SDS011;44614;54.356;10.100;2023-03-13T00:55:56;21.77;;;3.97;;
58842;SDS011;44614;54.356;10.100;2023-03-13T00:58:25;14.95;;;3.58;;
58842;SDS011;44614;54.356;10.100;2023-03-13T01:00:53;17.98;;;4.30;;
58842;SDS011;44614;54.356;10.100;2023-03-13T01:03:19;18.73;;;4.55;;
58842;SDS011;44614;54.356;10.100;2023-03-13T01:05:54;18.88;;;4.60;;
58842;SDS011;44614;54.356;10.100;2023-03-13T01:08:24;16.67;;;5.15;;
58842;SDS011;44614;54.356;10.100;2023-03-13T01:10:49;12.23;;;4.47;;
58842;SDS011;44614;54.356;10.100;2023-03-13T01:13:15;18.98;;;4.53;;
58842;SDS011;44614;54.356;10.100;2023-03-13T01:15:40;14.43;;;4.43;;
58842;SDS011;44614;54.356;10.100;2023-03-13T01:18:05;18.70;;;6.07;;
58842;SDS011;44614;54.356;10.100;2023-03-13T01:20:30;16.53;;;4.87;;
58842;SDS011;44614;54.356;10.100;2023-03-13T01:22:56;21.48;;;4.47;;
58842;SDS011;44614;54.356;10.100;2023-03-13T01:25:21;16.48;;;5.43;;
58842;SDS011;44614;54.356;10.100;2023-03-13T01:27:47;24.38;;;5.85;;
58842;SDS011;44614;54.356;10.100;2023-03-13T01:30:12;15.53;;;5.60;;
58842;SDS011;44614;54.356;10.100;2023-03-13T01:32:37;14.20;;;4.95;;
58842;SDS011;44614;54.356;10.100;2023-03-13T01:35:03;10.10;;;4.07;;
58842;SDS011;44614;54.356;10.100;2023-03-13T01:37:29;17.23;;;5.45;;
58842;SDS011;44614;54.356;10.100;2023-03-13T01:39:54;15.50;;;6.13;;
58842;SDS011;44614;54.356;10.100;2023-03-13T01:42:19;16.07;;;5.37;;
58842;SDS011;44614;54.356;10.100;2023-03-13T01:44:52;21.80;;;4.90;;
58842;SDS011;44614;54.356;10.100;2023-03-13T01:47:18;16.17;;;4.57;;
58842;SDS011;44614;54.356;10.100;2023-03-13T01:49:44;18.27;;;4.57;;
58842;SDS011;44614;54.356;10.100;2023-03-13T01:52:19;10.43;;;4.20;;
58842;SDS011;44614;54.356;10.100;2023-03-13T01:54:56;11.07;;;4.47;;
58842;SDS011;44614;54.356;10.100;2023-03-13T01:57:30;17.88;;;4.68;;
58842;SDS011;44614;54.356;10.100;2023-03-13T02:00:07;17.00;;;4.82;;
58842;SDS011;44614;54.356;10.100;2023-03-13T02:02:36;22.58;;;5.28;;
58842;SDS011;44614;54.356;10.100;2023-03-13T02:05:03;17.83;;;5.38;;
58842;SDS011;44614;54.356;10.100;2023-03-13T02:10:05;11.15;;;3.63;;
58842;SDS011;44614;54.356;10.100;2023-03-13T02:12:34;21.73;;;5.00;;
58842;SDS011;44614;54.356;10.100;2023-03-13T02:15:03;13.32;;;4.50;;
58842;SDS011;44614;54.356;10.100;2023-03-13T02:17:31;18.67;;;5.68;;
58842;SDS011;44614;54.356;10.100;2023-03-13T02:19:59;27.00;;;5.90;;
58842;SDS011;44614;54.356;10.100;2023-03-13T02:22:27;14.93;;;3.93;;
58842;SDS011;44614;54.356;10.100;2023-03-13T02:27:31;13.35;;;5.55;;
58842;SDS011;44614;54.356;10.100;2023-03-13T02:29:57;14.13;;;3.95;;
58842;SDS011;44614;54.356;10.100;2023-03-13T02:32:24;19.13;;;4.32;;
58842;SDS011;44614;54.356;10.100;2023-03-13T02:34:51;16.23;;;3.80;;
58842;SDS011;44614;54.356;10.100;2023-03-13T02:37:21;24.80;;;5.13;;
58842;SDS011;44614;54.356;10.100;2023-03-13T02:39:49;20.48;;;5.35;;
58842;SDS011;44614;54.356;10.100;2023-03-13T02:42:16;17.38;;;4.75;;
58842;SDS011;44614;54.356;10.100;2023-03-13T02:44:45;11.80;;;4.90;;
58842;SDS011;44614;54.356;10.100;2023-03-13T02:47:12;10.57;;;4.05;;
58842;SDS011;44614;54.356;10.100;2023-03-13T02:49:42;22.45;;;4.68;;
58842;SDS011;44614;54.356;10.100;2023-03-13T02:52:11;16.85;;;3.85;;
58842;SDS011;44614;54.356;10.100;2023-03-13T02:54:41;9.32;;;4.07;;
58842;SDS011;44614;54.356;10.100;2023-03-13T02:57:09;17.55;;;5.20;;
58842;SDS011;44614;54.356;10.100;2023-03-13T02:59:35;10.80;;;3.90;;
58842;SDS011;44614;54.356;10.100;2023-03-13T03:02:00;20.45;;;4.68;;
58842;SDS011;44614;54.356;10.100;2023-03-13T03:04:27;10.57;;;3.20;;
58842;SDS011;44614;54.356;10.100;2023-03-13T03:06:52;16.92;;;4.30;;
58842;SDS011;44614;54.356;10.100;2023-03-13T03:09:18;8.70;;;3.83;;
58842;SDS011;44614;54.356;10.100;2023-03-13T03:11:44;15.75;;;4.68;;
58842;SDS011;44614;54.356;10.100;2023-03-13T03:14:10;9.23;;;3.88;;
58842;SDS011;44614;54.356;10.100;2023-03-13T03:16:36;10.02;;;4.45;;
58842;SDS011;44614;54.356;10.100;2023-03-13T03:19:01;11.80;;;3.28;;
58842;SDS011;44614;54.356;10.100;2023-03-13T03:21:27;10.32;;;4.18;;
58842;SDS011;44614;54.356;10.100;2023-03-13T03:23:52;19.00;;;4.25;;
58842;SDS011;44614;54.356;10.100;2023-03-13T03:26:18;11.20;;;4.28;;
58842;SDS011;44614;54.356;10.100;2023-03-13T03:28:43;18.48;;;6.43;;
58842;SDS011;44614;54.356;10.100;2023-03-13T03:31:10;10.57;;;4.78;;
58842;SDS011;44614;54.356;10.100;2023-03-13T03:33:37;20.10;;;5.85;;
58842;SDS011;44614;54.356;10.100;2023-03-13T03:36:05;11.70;;;4.33;;
58842;SDS011;44614;54.356;10.100;2023-03-13T03:38:32;20.73;;;6.45;;
58842;SDS011;44614;54.356;10.100;2023-03-13T03:40:58;16.70;;;6.05;;
58842;SDS011;44614;54.356;10.100;2023-03-13T03:43:23;22.40;;;6.05;;
58842;SDS011;44614;54.356;10.100;2023-03-13T03:45:48;23.63;;;6.75;;
58842;SDS011;44614;54.356;10.100;2023-03-13T03:48:14;21.65;;;8.90;;
58842;SDS011;44614;54.356;10.100;2023-03-13T03:50:39;19.98;;;8.48;;
58842;SDS011;44614;54.356;10.100;2023-03-13T03:53:04;15.87;;;7.37;;
58842;SDS011;44614;54.356;10.100;2023-03-13T03:55:30;15.68;;;6.72;;
58842;SDS011;44614;54.356;10.100;2023-03-13T03:57:55;23.95;;;7.25;;
58842;SDS011;44614;54.356;10.100;2023-03-13T04:00:20;17.27;;;6.87;;
58842;SDS011;44614;54.356;10.100;2023-03-13T04:02:46;13.52;;;5.80;;
58842;SDS011;44614;54.356;10.100;2023-03-13T04:05:11;16.15;;;6.18;;
58842;SDS011;44614;54.356;10.100;2023-03-13T04:07:37;14.77;;;5.97;;
58842;SDS011;44614;54.356;10.100;2023-03-13T04:10:02;22.25;;;6.55;;
58842;SDS011;44614;54.356;10.100;2023-03-13T04:12:29;18.33;;;6.93;;
58842;SDS011;44614;54.356;10.100;2023-03-13T04:14:54;17.80;;;6.47;;
58842;SDS011;44614;54.356;10.100;2023-03-13T04:17:19;16.23;;;8.20;;
58842;SDS011;44614;54.356;10.100;2023-03-13T04:19:45;17.67;;;5.03;;
58842;SDS011;44614;54.356;10.100;2023-03-13T04:22:10;22.67;;;5.97;;
58842;SDS011;44614;54.356;10.100;2023-03-13T04:24:35;14.80;;;5.93;;
58842;SDS011;44614;54.356;10.100;2023-03-13T04:27:01;19.80;;;5.90;;
58842;SDS011;44614;54.356;10.100;2023-03-13T04:29:27;19.25;;;5.97;;
58842;SDS011;44614;54.356;10.100;2023-03-13T04:31:53;14.55;;;4.93;;
58842;SDS011;44614;54.356;10.100;2023-03-13T04:34:18;13.52;;;5.38;;
58842;SDS011;44614;54.356;10.100;2023-03-13T04:36:45;15.77;;;5.82;;
58842;SDS011;44614;54.356;10.100;2023-03-13T04:39:10;13.88;;;5.95;;
58842;SDS011;44614;54.356;10.100;2023-03-13T04:41:36;17.67;;;5.70;;
58842;SDS011;44614;54.356;10.100;2023-03-13T04:44:01;20.15;;;5.70;;
58842;SDS011;44614;54.356;10.100;2023-03-13T04:46:26;19.08;;;5.63;;
58842;SDS011;44614;54.356;10.100;2023-03-13T04:48:52;23.52;;;6.50;;
58842;SDS011;44614;54.356;10.100;2023-03-13T04:51:17;12.75;;;5.53;;
58842;SDS011;44614;54.356;10.100;2023-03-13T04:53:42;10.88;;;4.28;;
58842;SDS011;44614;54.356;10.100;2023-03-13T04:56:08;20.58;;;6.35;;
58842;SDS011;44614;54.356;10.100;2023-03-13T05:01:00;12.77;;;4.73;;
58842;SDS011;44614;54.356;10.100;2023-03-13T05:03:25;16.83;;;5.87;;
58842;SDS011;44614;54.356;10.100;2023-03-13T05:05:51;15.63;;;5.32;;
58842;SDS011;44614;54.356;10.100;2023-03-13T05:08:16;16.90;;;6.80;;
58842;SDS011;44614;54.356;10.100;2023-03-13T05:10:41;20.60;;;5.32;;
58842;SDS011;44614;54.356;10.100;2023-03-13T05:13:07;16.92;;;5.05;;
58842;SDS011;44614;54.356;10.100;2023-03-13T05:15:32;23.17;;;6.57;;
58842;SDS011;44614;54.356;10.100;2023-03-13T05:17:57;13.18;;;5.50;;
58842;SDS011;44614;54.356;10.100;2023-03-13T05:20:23;19.70;;;5.53;;
58842;SDS011;44614;54.356;10.100;2023-03-13T05:22:48;9.70;;;4.60;;
58842;SDS011;44614;54.356;10.100;2023-03-13T05:25:14;18.25;;;6.57;;
58842;SDS011;44614;54.356;10.100;2023-03-13T05:27:39;16.25;;;5.57;;
58842;SDS011;44614;54.356;10.100;2023-03-13T05:30:05;12.45;;;6.00;;
58842;SDS011;44614;54.356;10.100;2023-03-13T05:32:31;12.65;;;4.60;;
58842;SDS011;44614;54.356;10.100;2023-03-13T05:34:56;9.38;;;3.75;;
58842;SDS011;44614;54.356;10.100;2023-03-13T05:37:21;10.50;;;4.37;;
58842;SDS011;44614;54.356;10.100;2023-03-13T05:39:47;9.65;;;4.57;;
58842;SDS011;44614;54.356;10.100;2023-03-13T05:42:12;15.93;;;5.87;;
58842;SDS011;44614;54.356;10.100;2023-03-13T05:44:37;17.00;;;5.68;;
58842;SDS011;44614;54.356;10.100;2023-03-13T05:47:02;13.25;;;6.10;;
58842;SDS011;44614;54.356;10.100;2023-03-13T05:49:28;10.30;;;5.88;;
58842;SDS011;44614;54.356;10.100;2023-03-13T05:51:53;15.03;;;7.37;;
58842;SDS011;44614;54.356;10.100;2023-03-13T05:54:18;12.15;;;5.10;;
58842;SDS011;44614;54.356;10.100;2023-03-13T05:56:44;11.77;;;3.97;;
58842;SDS011;44614;54.356;10.100;2023-03-13T05:59:12;13.73;;;4.88;;
58842;SDS011;44614;54.356;10.100;2023-03-13T06:01:38;10.55;;;4.80;;
58842;SDS011;44614;54.356;10.100;2023-03-13T06:04:03;11.25;;;5.53;;
58842;SDS011;44614;54.356;10.100;2023-03-13T06:06:28;10.68;;;4.35;;
58842;SDS011;44614;54.356;10.100;2023-03-13T06:08:54;9.97;;;4.67;;
58842;SDS011;44614;54.356;10.100;2023-03-13T06:11:19;12.13;;;5.35;;
58842;SDS011;44614;54.356;10.100;2023-03-13T06:13:45;13.18;;;4.22;;
58842;SDS011;44614;54.356;10.100;2023-03-13T06:16:10;6.38;;;3.47;;
58842;SDS011;44614;54.356;10.100;2023-03-13T06:18:35;6.32;;;3.13;;
58842;SDS011;44614;54.356;10.100;2023-03-13T06:21:01;11.70;;;3.10;;
58842;SDS011;44614;54.356;10.100;2023-03-13T06:23:26;5.68;;;3.50;;
58842;SDS011;44614;54.356;10.100;2023-03-13T06:25:52;5.80;;;3.10;;
58842;SDS011;44614;54.356;10.100;2023-03-13T06:28:18;10.82;;;3.35;;
58842;SDS011;44614;54.356;10.100;2023-03-13T06:30:43;6.75;;;2.35;;
58842;SDS011;44614;54.356;10.100;2023-03-13T06:33:09;7.03;;;2.25;;
58842;SDS011;44614;54.356;10.100;2023-03-13T06:35:35;7.75;;;2.97;;
58842;SDS011;44614;54.356;10.100;2023-03-13T06:38:04;8.23;;;3.05;;
58842;SDS011;44614;54.356;10.100;2023-03-13T06:40:29;6.43;;;1.90;;
58842;SDS011;44614;54.356;10.100;2023-03-13T06:42:54;8.37;;;3.40;;
58842;SDS011;44614;54.356;10.100;2023-03-13T06:45:20;8.10;;;2.67;;
58842;SDS011;44614;54.356;10.100;2023-03-13T06:47:45;6.73;;;2.00;;
58842;SDS011;44614;54.356;10.100;2023-03-13T06:50:10;7.10;;;2.90;;
58842;SDS011;44614;54.356;10.100;2023-03-13T06:52:35;5.05;;;2.30;;
58842;SDS011;44614;54.356;10.100;2023-03-13T06:55:02;2.40;;;1.60;;
58842;SDS011;44614;54.356;10.100;2023-03-13T06:57:28;3.78;;;1.85;;
58842;SDS011;44614;54.356;10.100;2023-03-13T06:59:53;5.13;;;1.70;;
58842;SDS011;44614;54.356;10.100;2023-03-13T07:02:18;2.63;;;1.67;;
58842;SDS011;44614;54.356;10.100;2023-03-13T07:04:43;6.03;;;1.58;;
58842;SDS011;44614;54.356;10.100;2023-03-13T07:07:10;2.85;;;1.20;;
58842;SDS011;44614;54.356;10.100;2023-03-13T07:09:35;5.22;;;1.90;;
58842;SDS011;44614;54.356;10.100;2023-03-13T07:12:01;3.28;;;1.42;;
58842;SDS011;44614;54.356;10.100;2023-03-13T07:14:27;3.53;;;1.58;;
58842;SDS011;44614;54.356;10.100;2023-03-13T07:16:52;5.45;;;1.63;;
58842;SDS011;44614;54.356;10.100;2023-03-13T07:19:18;4.45;;;0.85;;
58842;SDS011;44614;54.356;10.100;2023-03-13T07:21:43;2.63;;;1.02;;
58842;SDS011;44614;54.356;10.100;2023-03-13T07:24:08;2.65;;;0.98;;
58842;SDS011;44614;54.356;10.100;2023-03-13T07:26:34;2.50;;;1.23;;
58842;SDS011;44614;54.356;10.100;2023-03-13T07:28:59;2.55;;;1.35;;
58842;SDS011;44614;54.356;10.100;2023-03-13T07:31:25;7.25;;;1.02;;
58842;SDS011;44614;54.356;10.100;2023-03-13T07:33:50;1.77;;;1.63;;
58842;SDS011;44614;54.356;10.100;2023-03-13T07:36:20;3.78;;;2.10;;
58842;SDS011;44614;54.356;10.100;2023-03-13T07:38:46;1.27;;;0.75;;
58842;SDS011;44614;54.356;10.100;2023-03-13T07:41:15;2.47;;;1.20;;
58842;SDS011;44614;54.356;10.100;2023-03-13T07:43:41;8.85;;;2.20;;
58842;SDS011;44614;54.356;10.100;2023-03-13T07:46:07;5.05;;;1.65;;
58842;SDS011;44614;54.356;10.100;2023-03-13T07:48:37;6.25;;;1.60;;
58842;SDS011;44614;54.356;10.100;2023-03-13T07:51:04;4.72;;;1.80;;
58842;SDS011;44614;54.356;10.100;2023-03-13T07:53:31;4.35;;;1.73;;
58842;SDS011;44614;54.356;10.100;2023-03-13T07:56:00;2.70;;;1.60;;
58842;SDS011;44614;54.356;10.100;2023-03-13T07:58:29;3.60;;;1.73;;
58842;SDS011;44614;54.356;10.100;2023-03-13T08:00:55;3.88;;;1.45;;
58842;SDS011;44614;54.356;10.100;2023-03-13T08:03:21;6.63;;;1.85;;
58842;SDS011;44614;54.356;10.100;2023-03-13T08:05:55;3.20;;;1.50;;
58842;SDS011;44614;54.356;10.100;2023-03-13T08:08:22;2.45;;;1.10;;
58842;SDS011;44614;54.356;10.100;2023-03-13T08:10:47;2.47;;;1.43;;
58842;SDS011;44614;54.356;10.100;2023-03-13T08:13:12;1.98;;;1.27;;
58842;SDS011;44614;54.356;10.100;2023-03-13T08:15:38;1.17;;;1.02;;
58842;SDS011;44614;54.356;10.100;2023-03-13T08:18:03;3.00;;;1.30;;
58842;SDS011;44614;54.356;10.100;2023-03-13T08:20:28;3.50;;;1.23;;
58842;SDS011;44614;54.356;10.100;2023-03-13T08:22:54;1.95;;;1.20;;
58842;SDS011;44614;54.356;10.100;2023-03-13T08:25:20;1.55;;;1.00;;
58842;SDS011;44614;54.356;10.100;2023-03-13T08:27:46;0.65;;;0.43;;
58842;SDS011;44614;54.356;10.100;2023-03-13T08:30:11;3.08;;;1.10;;
58842;SDS011;44614;54.356;10.100;2023-03-13T08:32:37;3.22;;;1.02;;
58842;SDS011;44614;54.356;10.100;2023-03-13T08:35:03;1.67;;;1.17;;
58842;SDS011;44614;54.356;10.100;2023-03-13T08:37:28;1.80;;;0.70;;
58842;SDS011;44614;54.356;10.100;2023-03-13T08:39:53;1.35;;;0.52;;
58842;SDS011;44614;54.356;10.100;2023-03-13T08:42:20;0.93;;;0.50;;
58842;SDS011;44614;54.356;10.100;2023-03-13T08:44:48;1.73;;;0.82;;
58842;SDS011;44614;54.356;10.100;2023-03-13T08:47:13;3.03;;;1.23;;
58842;SDS011;44614;54.356;10.100;2023-03-13T08:49:39;0.60;;;0.60;;
58842;SDS011;44614;54.356;10.100;2023-03-13T08:52:04;2.03;;;0.50;;
58842;SDS011;44614;54.356;10.100;2023-03-13T08:54:30;1.65;;;0.90;;
58842;SDS011;44614;54.356;10.100;2023-03-13T08:56:56;6.47;;;1.92;;
58842;SDS011;44614;54.356;10.100;2023-03-13T08:59:23;4.15;;;1.83;;
58842;SDS011;44614;54.356;10.100;2023-03-13T09:01:49;11.32;;;4.55;;
58842;SDS011;44614;54.356;10.100;2023-03-13T09:04:14;9.20;;;4.73;;
58842;SDS011;44614;54.356;10.100;2023-03-13T09:06:39;7.27;;;5.07;;
58842;SDS011;44614;54.356;10.100;2023-03-13T09:09:05;3.22;;;1.73;;
58842;SDS011;44614;54.356;10.100;2023-03-13T09:11:31;2.05;;;0.70;;
58842;SDS011;44614;54.356;10.100;2023-03-13T09:13:57;1.30;;;0.90;;
58842;SDS011;44614;54.356;10.100;2023-03-13T09:16:24;0.75;;;0.50;;
58842;SDS011;44614;54.356;10.100;2023-03-13T09:18:51;1.95;;;0.70;;
58842;SDS011;44614;54.356;10.100;2023-03-13T09:21:18;1.25;;;0.60;;
58842;SDS011;44614;54.356;10.100;2023-03-13T09:23:48;1.98;;;0.77;;
58842;SDS011;44614;54.356;10.100;2023-03-13T09:26:15;1.15;;;0.65;;
58842;SDS011;44614;54.356;10.100;2023-03-13T09:28:41;0.65;;;0.45;;
58842;SDS011;44614;54.356;10.100;2023-03-13T09:31:08;1.17;;;0.60;;
58842;SDS011;44614;54.356;10.100;2023-03-13T09:33:44;0.30;;;0.20;;
58842;SDS011;44614;54.356;10.100;2023-03-13T09:36:12;0.35;;;0.22;;
58842;SDS011;44614;54.356;10.100;2023-03-13T09:38:38;0.65;;;0.20;;
58842;SDS011;44614;54.356;10.100;2023-03-13T09:41:10;0.52;;;0.25;;
58842;SDS011;44614;54.356;10.100;2023-03-13T09:46:45;2.05;;;0.35;;
58842;SDS011;44614;54.356;10.100;2023-03-13T09:52:04;1.23;;;0.32;;
58842;SDS011;44614;54.356;10.100;2023-03-13T09:54:40;1.33;;;0.30;;
58842;SDS011;44614;54.356;10.100;2023-03-13T09:59:48;1.23;;;0.30;;
58842;SDS011;44614;54.356;10.100;2023-03-13T10:02:32;0.20;;;0.20;;
58842;SDS011;44614;54.356;10.100;2023-03-13T10:05:02;0.17;;;0.17;;
58842;SDS011;44614;54.356;10.100;2023-03-13T10:07:31;0.20;;;0.10;;
58842;SDS011;44614;54.356;10.100;2023-03-13T10:09:58;0.57;;;0.30;;
58842;SDS011;44614;54.356;10.100;2023-03-13T10:12:28;0.57;;;0.20;;
58842;SDS011;44614;54.356;10.100;2023-03-13T10:15:02;1.30;;;0.22;;
58842;SDS011;44614;54.356;10.100;2023-03-13T10:17:44;0.60;;;0.38;;
58842;SDS011;44614;54.356;10.100;2023-03-13T10:20:16;1.23;;;0.30;;
58842;SDS011;44614;54.356;10.100;2023-03-13T10:22:43;2.78;;;0.30;;
58842;SDS011;44614;54.356;10.100;2023-03-13T10:27:51;1.65;;;0.47;;
58842;SDS011;44614;54.356;10.100;2023-03-13T10:32:43;0.70;;;0.40;;
58842;SDS011;44614;54.356;10.100;2023-03-13T10:35:09;1.73;;;0.50;;
58842;SDS011;44614;54.356;10.100;2023-03-13T10:37:45;1.85;;;0.80;;
58842;SDS011;44614;54.356;10.100;2023-03-13T10:40:19;2.67;;;1.33;;
58842;SDS011;44614;54.356;10.100;2023-03-13T10:42:47;6.10;;;1.38;;
58842;SDS011;44614;54.356;10.100;2023-03-13T10:45:14;1.85;;;0.93;;
58842;SDS011;44614;54.356;10.100;2023-03-13T10:47:41;3.35;;;0.68;;
58842;SDS011;44614;54.356;10.100;2023-03-13T10:50:11;4.47;;;1.20;;
58842;SDS011;44614;54.356;10.100;2023-03-13T10:52:44;1.65;;;0.82;;
58842;SDS011;44614;54.356;10.100;2023-03-13T10:55:12;2.42;;;0.95;;
58842;SDS011;44614;54.356;10.100;2023-03-13T10:57:42;1.08;;;0.55;;
58842;SDS011;44614;54.356;10.100;2023-03-13T11:00:58;2.42;;;0.77;;
58842;SDS011;44614;54.356;10.100;2023-03-13T11:03:13;0.85;;;0.55;;
58842;SDS011;44614;54.356;10.100;2023-03-13T11:08:22;1.80;;;0.82;;
58842;SDS011;44614;54.356;10.100;2023-03-13T11:10:50;1.55;;;0.57;;
58842;SDS011;44614;54.356;10.100;2023-03-13T11:13:38;1.88;;;0.75;;
58842;SDS011;44614;54.356;10.100;2023-03-13T11:21:36;2.63;;;1.05;;
58842;SDS011;44614;54.356;10.100;2023-03-13T11:24:26;1.25;;;0.50;;
58842;SDS011;44614;54.356;10.100;2023-03-13T11:32:26;1.33;;;0.85;;
58842;SDS011;44614;54.356;10.100;2023-03-13T11:37:55;2.75;;;0.40;;
58842;SDS011;44614;54.356;10.100;2023-03-13T11:40:29;3.20;;;0.85;;
58842;SDS011;44614;54.356;10.100;2023-03-13T11:51:44;0.60;;;0.45;;
58842;SDS011;44614;54.356;10.100;2023-03-13T11:57:04;2.67;;;1.02;;
58842;SDS011;44614;54.356;10.100;2023-03-13T12:02:27;0.70;;;0.50;;
58842;SDS011;44614;54.356;10.100;2023-03-13T12:04:58;1.55;;;0.60;;
58842;SDS011;44614;54.356;10.100;2023-03-13T12:07:29;5.05;;;0.82;;
58842;SDS011;44614;54.356;10.100;2023-03-13T12:10:03;3.25;;;0.55;;
58842;SDS011;44614;54.356;10.100;2023-03-13T12:15:20;5.38;;;0.88;;
58842;SDS011;44614;54.356;10.100;2023-03-13T12:17:52;5.05;;;0.45;;
58842;SDS011;44614;54.356;10.100;2023-03-13T12:25:46;1.15;;;0.63;;
58842;SDS011;44614;54.356;10.100;2023-03-13T12:36:11;7.43;;;0.88;;
58842;SDS011;44614;54.356;10.100;2023-03-13T12:38:46;3.33;;;1.17;;
58842;SDS011;44614;54.356;10.100;2023-03-13T12:44:21;4.00;;;1.58;;
58842;SDS011;44614;54.356;10.100;2023-03-13T12:46:58;3.95;;;1.13;;
58842;SDS011;44614;54.356;10.100;2023-03-13T12:57:47;5.38;;;1.08;;
58842;SDS011;44614;54.356;10.100;2023-03-13T13:00:30;6.63;;;1.90;;
58842;SDS011;44614;54.356;10.100;2023-03-13T13:03:04;5.65;;;1.85;;
58842;SDS011;44614;54.356;10.100;2023-03-13T13:05:31;1.88;;;0.60;;
58842;SDS011;44614;54.356;10.100;2023-03-13T13:07:57;3.50;;;1.67;;
58842;SDS011;44614;54.356;10.100;2023-03-13T13:10:25;5.50;;;1.07;;
58842;SDS011;44614;54.356;10.100;2023-03-13T13:15:58;15.57;;;1.75;;
58842;SDS011;44614;54.356;10.100;2023-03-13T13:18:31;2.53;;;1.48;;
58842;SDS011;44614;54.356;10.100;2023-03-13T13:25:51;5.97;;;1.07;;
58842;SDS011;44614;54.356;10.100;2023-03-13T13:30:47;4.18;;;1.20;;
58842;SDS011;44614;54.356;10.100;2023-03-13T13:35:42;2.63;;;0.93;;
58842;SDS011;44614;54.356;10.100;2023-03-13T13:41:00;5.10;;;1.17;;
58842;SDS011;44614;54.356;10.100;2023-03-13T13:44:18;6.55;;;1.50;;
58842;SDS011;44614;54.356;10.100;2023-03-13T13:46:49;12.98;;;1.25;;
58842;SDS011;44614;54.356;10.100;2023-03-13T13:49:18;4.43;;;2.33;;
58842;SDS011;44614;54.356;10.100;2023-03-13T13:54:32;7.32;;;1.55;;
58842;SDS011;44614;54.356;10.100;2023-03-13T13:57:25;5.07;;;1.15;;
58842;SDS011;44614;54.356;10.100;2023-03-13T14:02:45;11.05;;;2.22;;
58842;SDS011;44614;54.356;10.100;2023-03-13T14:05:14;11.18;;;1.60;;
58842;SDS011;44614;54.356;10.100;2023-03-13T14:07:47;8.38;;;1.67;;
58842;SDS011;44614;54.356;10.100;2023-03-13T14:10:37;5.10;;;1.70;;
58842;SDS011;44614;54.356;10.100;2023-03-13T14:13:12;3.72;;;0.75;;
58842;SDS011;44614;54.356;10.100;2023-03-13T14:15:43;4.85;;;1.02;;
58842;SDS011;44614;54.356;10.100;2023-03-13T14:18:25;9.38;;;1.80;;
58842;SDS011;44614;54.356;10.100;2023-03-13T14:20:56;4.13;;;1.20;;
58842;SDS011;44614;54.356;10.100;2023-03-13T14:26:07;11.07;;;1.65;;
58842;SDS011;44614;54.356;10.100;2023-03-13T14:28:34;5.60;;;1.00;;
58842;SDS011;44614;54.356;10.100;2023-03-13T14:31:03;5.15;;;0.82;;
58842;SDS011;44614;54.356;10.100;2023-03-13T14:33:29;4.90;;;1.20;;
58842;SDS011;44614;54.356;10.100;2023-03-13T14:35:55;2.90;;;1.08;;
58842;SDS011;44614;54.356;10.100;2023-03-13T14:38:26;6.63;;;1.73;;
58842;SDS011;44614;54.356;10.100;2023-03-13T14:40:54;4.47;;;0.90;;
58842;SDS011;44614;54.356;10.100;2023-03-13T14:43:22;4.65;;;0.88;;
58842;SDS011;44614;54.356;10.100;2023-03-13T14:45:54;11.25;;;1.45;;
58842;SDS011;44614;54.356;10.100;2023-03-13T14:50:48;8.70;;;1.55;;
58842;SDS011;44614;54.356;10.100;2023-03-13T14:53:16;6.07;;;0.93;;
58842;SDS011;44614;54.356;10.100;2023-03-13T14:55:44;10.50;;;2.55;;
58842;SDS011;44614;54.356;10.100;2023-03-13T15:00:44;4.75;;;0.88;;
58842;SDS011;44614;54.356;10.100;2023-03-13T15:08:36;4.65;;;1.98;;
58842;SDS011;44614;54.356;10.100;2023-03-13T15:14:27;3.90;;;1.90;;
58842;SDS011;44614;54.356;10.100;2023-03-13T15:16:59;3.85;;;0.95;;
58842;SDS011;44614;54.356;10.100;2023-03-13T15:19:24;4.67;;;0.90;;
58842;SDS011;44614;54.356;10.100;2023-03-13T15:21:50;8.67;;;1.60;;
58842;SDS011;44614;54.356;10.100;2023-03-13T15:24:16;6.93;;;1.47;;
58842;SDS011;44614;54.356;10.100;2023-03-13T15:26:41;7.43;;;1.17;;
58842;SDS011;44614;54.356;10.100;2023-03-13T15:29:07;4.03;;;1.10;;
58842;SDS011;44614;54.356;10.100;2023-03-13T15:31:34;4.25;;;1.48;;
58842;SDS011;44614;54.356;10.100;2023-03-13T15:34:00;6.03;;;1.00;;
58842;SDS011;44614;54.356;10.100;2023-03-13T15:36:26;4.10;;;1.30;;
58842;SDS011;44614;54.356;10.100;2023-03-13T15:38:52;7.38;;;1.55;;
58842;SDS011;44614;54.356;10.100;2023-03-13T15:41:19;5.57;;;1.33;;
58842;SDS011;44614;54.356;10.100;2023-03-13T15:43:45;7.75;;;1.17;;
58842;SDS011;44614;54.356;10.100;2023-03-13T15:46:12;6.53;;;1.47;;
58842;SDS011;44614;54.356;10.100;2023-03-13T15:51:05;2.75;;;1.30;;
58842;SDS011;44614;54.356;10.100;2023-03-13T15:53:31;6.40;;;1.03;;
58842;SDS011;44614;54.356;10.100;2023-03-13T15:56:02;5.95;;;1.30;;
58842;SDS011;44614;54.356;10.100;2023-03-13T15:58:37;8.27;;;1.75;;
58842;SDS011;44614;54.356;10.100;2023-03-13T16:01:02;6.23;;;1.70;;
58842;SDS011;44614;54.356;10.100;2023-03-13T16:03:28;4.47;;;1.23;;
58842;SDS011;44614;54.356;10.100;2023-03-13T16:05:54;10.33;;;2.10;;
58842;SDS011;44614;54.356;10.100;2023-03-13T16:10:50;6.63;;;1.85;;
58842;SDS011;44614;54.356;10.100;2023-03-13T16:13:15;4.37;;;1.47;;
58842;SDS011;44614;54.356;10.100;2023-03-13T16:15:41;7.07;;;1.27;;
58842;SDS011;44614;54.356;10.100;2023-03-13T16:18:21;5.13;;;0.93;;
58842;SDS011;44614;54.356;10.100;2023-03-13T16:20:48;7.28;;;2.00;;
58842;SDS011;44614;54.356;10.100;2023-03-13T16:23:14;6.20;;;1.45;;
58842;SDS011;44614;54.356;10.100;2023-03-13T16:25:40;5.32;;;1.13;;
58842;SDS011;44614;54.356;10.100;2023-03-13T16:28:09;6.72;;;1.27;;
58842;SDS011;44614;54.356;10.100;2023-03-13T16:30:39;7.45;;;1.75;;
58842;SDS011;44614;54.356;10.100;2023-03-13T16:33:07;3.88;;;1.25;;
58842;SDS011;44614;54.356;10.100;2023-03-13T16:35:33;9.53;;;3.17;;
58842;SDS011;44614;54.356;10.100;2023-03-13T16:37:59;8.60;;;2.47;;